Terminal Aerodrome Forecast
Issued by NWS Cleveland, OH

Home | Current Version | Previous Version | Graphics & Text | Print | Product List | Glossary On
Versions: 1 2 3 4 5 6 7 8 9 10 11 12 13 14 15 16 17 18 19 20 21 22 23
000
FTUS41 KCLE 252300
TAFERI
TAF
KERI 252328Z 2600/2624 32005KT P6SM BKN250
     FM260200 20005KT P6SM BKN150
     FM261400 21010KT P6SM BKN100
     FM262000 24012KT P6SM BKN050=

USA.gov is the U.S. government's official web portal to all federal, state and local government web resources and services.